Time;durP1;ratioP1;P1;durP2;ratioP2;P2;SDS_P1;SDS_P2;PMS_P1;PMS_P2;Temp;Humidity;BMP_temperature;BMP_pressure;BME280_temperature;BME280_humidity;BME280_pressure;Samples;Min_cycle;Max_cycle;Signal;HPM_P1;HPM_P2
2024/04/06 00:00:51;;;;;;;;;13.00;10.50;;;;;12.91;75.13;100053.73;113420;220;169841;-54
2024/04/06 00:03:50;;;;;;;;;11.50;9.50;;;;;12.87;75.37;100045.64;113608;220;40852;-58
2024/04/06 00:06:34;;;;;;;;;11.00;10.00;;;;;12.84;75.77;100047.06;113395;220;169346;-60
2024/04/06 00:09:15;;;;;;;;;12.00;9.00;;;;;12.81;76.49;100044.32;113612;220;41534;-56
2024/04/06 00:11:55;;;;;;;;;11.50;9.00;;;;;12.80;77.01;100048.91;113375;220;170509;-56
2024/04/06 00:14:36;;;;;;;;;10.00;9.00;;;;;12.79;77.62;100050.13;113609;224;42397;-55
2024/04/06 00:17:15;;;;;;;;;10.00;9.00;;;;;12.79;78.58;100049.84;113542;220;40661;-54
2024/04/06 00:19:52;;;;;;;;;9.00;7.00;;;;;12.81;79.12;100042.86;113408;220;169690;-54
2024/04/06 00:22:31;;;;;;;;;7.50;7.00;;;;;12.75;80.08;100029.53;113625;223;39774;-54
2024/04/06 00:25:08;;;;;;;;;8.50;7.50;;;;;12.77;80.49;100031.52;113996;220;41318;-54
2024/04/06 00:27:44;;;;;;;;;9.00;8.00;;;;;12.79;80.87;100032.48;113614;223;40355;-54
2024/04/06 00:30:19;;;;;;;;;10.00;8.00;;;;;12.80;81.82;100047.00;113475;224;169555;-58
2024/04/06 00:32:54;;;;;;;;;11.00;9.00;;;;;12.73;82.48;100046.79;113608;224;40481;-59
2024/04/06 00:35:33;;;;;;;;;11.50;9.00;;;;;12.70;82.80;100045.89;113698;220;42073;-57
2024/04/06 00:38:17;;;;;;;;;9.00;8.00;;;;;12.69;83.18;100047.35;113510;223;40077;-59
2024/04/06 00:40:53;;;;;;;;;8.00;7.00;;;;;12.66;83.46;100056.15;113682;223;39900;-57
2024/04/06 00:43:33;;;;;;;;;8.00;7.00;;;;;12.66;83.88;100063.58;113439;220;169811;-55
2024/04/06 00:46:12;;;;;;;;;9.50;8.00;;;;;12.67;83.96;100069.00;113770;218;40555;-55
2024/04/06 00:48:56;;;;;;;;;9.00;7.00;;;;;12.66;84.38;100076.58;113563;219;169414;-55
2024/04/06 00:51:36;;;;;;;;;11.00;9.00;;;;;12.72;84.59;100080.41;113707;219;41675;-54
2024/04/06 00:54:14;;;;;;;;;12.00;8.00;;;;;12.68;84.96;100086.75;113520;222;169899;-58
2024/04/06 00:56:55;;;;;;;;;11.00;9.00;;;;;12.59;85.28;100089.05;113671;222;40747;-57
2024/04/06 00:59:32;;;;;;;;;12.00;10.00;;;;;12.54;85.94;100091.19;113726;222;40906;-55
2024/04/06 01:02:08;;;;;;;;;11.00;10.00;;;;;12.49;86.47;100087.95;113549;219;40817;-56
2024/04/06 01:04:50;;;;;;;;;10.33;9.33;;;;;12.50;86.38;100090.58;113610;223;39872;-56
2024/04/06 01:07:28;;;;;;;;;13.00;11.00;;;;;12.50;86.57;100086.35;113382;220;169792;-53
2024/04/06 01:10:05;;;;;;;;;13.00;11.00;;;;;12.49;86.91;100092.35;113741;218;40257;-53
2024/04/06 01:12:43;;;;;;;;;11.00;9.00;;;;;12.47;87.27;100087.94;113397;223;169766;-54
2024/04/06 01:15:25;;;;;;;;;12.00;11.00;;;;;12.52;87.25;100090.14;113625;219;39882;-57
2024/04/06 01:18:01;;;;;;;;;10.00;8.00;;;;;12.51;87.46;100094.60;113405;223;170150;-58
2024/04/06 01:20:42;;;;;;;;;12.67;9.67;;;;;12.42;87.81;100092.77;113613;219;40204;-59
2024/04/06 01:23:23;;;;;;;;;10.50;9.00;;;;;12.48;87.86;100080.34;113657;219;40345;-59
2024/04/06 01:26:04;;;;;;;;;15.00;12.00;;;;;12.53;87.66;100076.23;113494;220;169410;-54
2024/04/06 01:28:42;;;;;;;;;12.50;10.00;;;;;12.48;87.95;100064.98;113667;223;40742;-57
2024/04/06 01:31:16;;;;;;;;;13.00;11.00;;;;;12.47;88.02;100050.48;113413;221;169668;-58
2024/04/06 01:34:00;;;;;;;;;13.00;10.00;;;;;12.42;88.24;100039.71;113746;220;40596;-58
2024/04/06 01:36:38;;;;;;;;;15.00;11.00;;;;;12.45;88.41;100030.92;113456;223;170449;-58
2024/04/06 01:39:24;;;;;;;;;12.00;9.00;;;;;12.38;88.59;100024.17;113608;221;41741;-54
2024/04/06 01:41:59;;;;;;;;;13.00;11.00;;;;;12.33;88.72;100013.48;113423;219;170107;-54
2024/04/06 01:44:45;;;;;;;;;15.00;12.00;;;;;12.31;88.92;100003.39;113602;220;41492;-55
2024/04/06 01:47:24;;;;;;;;;10.00;8.00;;;;;12.33;88.93;100009.55;113557;223;39905;-55
2024/04/06 01:50:09;;;;;;;;;14.00;11.00;;;;;12.32;89.05;100018.73;113330;224;170037;-57
2024/04/06 01:52:48;;;;;;;;;10.00;8.00;;;;;12.27;89.55;100020.56;113544;223;40769;-57
2024/04/06 01:55:29;;;;;;;;;13.00;11.00;;;;;12.25;89.52;100014.27;113386;220;170514;-54
2024/04/06 01:58:06;;;;;;;;;11.50;9.50;;;;;12.19;89.83;100011.69;113607;223;40587;-54
2024/04/06 02:00:46;;;;;;;;;12.00;9.50;;;;;12.21;90.01;100010.56;113417;223;169870;-54
2024/04/06 02:03:21;;;;;;;;;12.00;11.00;;;;;12.23;89.97;100014.40;113633;220;41135;-54
2024/04/06 02:06:00;;;;;;;;;12.00;11.00;;;;;12.21;90.19;100023.39;113466;220;169935;-58
2024/04/06 02:08:39;;;;;;;;;10.00;8.00;;;;;12.20;90.08;100024.56;113693;220;40305;-56
2024/04/06 02:11:15;;;;;;;;;12.00;10.00;;;;;12.23;90.30;100023.43;113642;219;40403;-57
2024/04/06 02:13:52;;;;;;;;;13.00;10.00;;;;;12.20;90.50;100024.58;113445;220;169706;-57
2024/04/06 02:16:33;;;;;;;;;12.00;10.00;;;;;12.18;90.80;100025.27;113608;223;39850;-56
2024/04/06 02:19:09;;;;;;;;;10.00;8.50;;;;;12.19;91.04;100027.94;113457;219;169885;-54
2024/04/06 02:21:47;;;;;;;;;14.00;11.00;;;;;12.19;91.12;100030.73;113649;221;40263;-54
2024/04/06 02:24:23;;;;;;;;;11.00;9.00;;;;;12.20;91.23;100027.60;113434;219;170224;-54
2024/04/06 02:27:06;;;;;;;;;13.00;11.00;;;;;12.19;91.39;100025.44;113602;223;39762;-54
2024/04/06 02:29:50;;;;;;;;;10.00;9.00;;;;;12.20;91.51;100029.10;113419;224;170138;-56
2024/04/06 02:32:29;;;;;;;;;10.50;9.00;;;;;12.24;91.63;100033.89;113611;221;40407;-57
2024/04/06 02:35:04;;;;;;;;;11.00;10.00;;;;;12.29;91.86;100036.68;113582;219;43263;-55
2024/04/06 02:37:43;;;;;;;;;;;;;;;12.32;91.58;100039.48;113377;220;170569;-55
2024/04/06 02:40:20;;;;;;;;;12.00;11.00;;;;;12.32;91.68;100040.81;113648;219;39971;-57
2024/04/06 02:43:03;;;;;;;;;12.00;10.00;;;;;12.35;91.63;100044.55;113416;219;169983;-56
2024/04/06 02:45:48;;;;;;;;;11.00;9.33;;;;;12.39;91.79;100044.23;113651;223;40818;-56
2024/04/06 02:48:27;;;;;;;;;10.75;9.25;;;;;12.41;92.02;100048.34;113435;219;169716;-56
2024/04/06 02:51:04;;;;;;;;;10.00;9.00;;;;;12.42;92.24;100052.35;113609;221;42187;-53
2024/04/06 02:53:47;;;;;;;;;9.50;8.50;;;;;12.46;92.30;100052.75;113477;223;170062;-55
2024/04/06 02:56:28;;;;;;;;;10.00;9.00;;;;;12.45;92.27;100053.60;113572;223;40540;-55
2024/04/06 02:59:10;;;;;;;;;8.50;7.50;;;;;12.52;92.46;100052.17;113617;223;39745;-57
2024/04/06 03:01:50;;;;;;;;;13.00;11.00;;;;;12.48;92.24;100061.39;113414;220;169499;-57
2024/04/06 03:04:30;;;;;;;;;10.00;8.33;;;;;12.41;92.32;100065.72;113646;219;40461;-53
2024/04/06 03:07:10;;;;;;;;;12.00;10.00;;;;;12.30;92.10;100063.27;113390;220;169830;-54
2024/04/06 03:09:57;;;;;;;;;9.00;8.00;;;;;12.22;92.31;100066.84;113583;223;40680;-56
2024/04/06 03:12:40;;;;;;;;;11.00;10.00;;;;;12.14;92.38;100069.63;113366;223;169721;-54
2024/04/06 03:15:17;;;;;;;;;10.00;9.00;;;;;12.07;92.28;100069.05;113597;220;41403;-56
2024/04/06 03:17:57;;;;;;;;;12.00;9.00;;;;;11.98;92.19;100067.52;113408;223;170192;-56
2024/04/06 03:20:39;;;;;;;;;11.50;10.00;;;;;11.92;92.08;100071.95;113579;219;40737;-56
2024/04/06 03:23:19;;;;;;;;;10.00;9.00;;;;;11.85;92.16;100075.98;113577;223;40981;-57
2024/04/06 03:26:01;;;;;;;;;10.00;9.00;;;;;11.75;92.29;100078.70;113408;220;169764;-54
2024/04/06 03:28:35;;;;;;;;;10.00;9.00;;;;;11.71;92.45;100079.23;113645;219;41737;-56
2024/04/06 03:31:12;;;;;;;;;7.50;7.00;;;;;11.69;92.67;100087.55;113411;219;169761;-57
2024/04/06 03:33:57;;;;;;;;;10.00;8.00;;;;;11.65;92.81;100088.17;113673;219;40582;-57
2024/04/06 03:36:36;;;;;;;;;10.00;8.00;;;;;11.61;92.93;100093.20;113443;219;169870;-59
2024/04/06 03:39:11;;;;;;;;;8.00;7.00;;;;;11.59;92.99;100093.65;113590;219;41275;-57
2024/04/06 03:41:51;;;;;;;;;7.33;6.00;;;;;11.55;92.99;100097.67;113478;219;169905;-54
2024/04/06 03:44:27;;;;;;;;;9.00;7.00;;;;;11.51;93.11;100098.20;113613;219;41309;-57
2024/04/06 03:47:12;;;;;;;;;9.00;8.00;;;;;11.48;93.07;100099.19;113623;219;41326;-57
2024/04/06 03:49:49;;;;;;;;;9.00;8.00;;;;;11.44;93.34;100104.20;113453;223;169639;-58
2024/04/06 03:52:30;;;;;;;;;10.00;8.00;;;;;11.42;93.38;100106.23;113648;219;40271;-58
2024/04/06 03:55:09;;;;;;;;;8.00;7.00;;;;;11.39;93.76;100109.22;113418;219;169986;-58
2024/04/06 03:57:48;;;;;;;;;9.67;8.00;;;;;11.37;93.93;100112.29;113643;219;40587;-59
2024/04/06 04:00:43;;;;;;;;;11.00;9.00;;;;;11.37;94.28;100114.91;113444;219;169291;-57
2024/04/06 04:03:27;;;;;;;;;9.50;8.00;;;;;11.31;94.14;100118.84;113628;223;40112;-57
2024/04/06 04:06:04;;;;;;;;;10.00;9.00;;;;;11.26;94.11;100123.60;113417;219;170665;-59
2024/04/06 04:08:38;;;;;;;;;9.00;8.00;;;;;11.23;94.34;100127.66;113609;219;41436;-58
2024/04/06 04:11:20;;;;;;;;;9.00;7.00;;;;;11.22;94.15;100127.16;113607;219;41126;-57
2024/04/06 04:13:58;;;;;;;;;9.00;7.00;;;;;11.21;94.25;100127.02;113418;219;169824;-55
2024/04/06 04:16:37;;;;;;;;;9.00;7.50;;;;;11.20;94.31;100133.81;113654;219;40997;-55
2024/04/06 04:19:13;;;;;;;;;9.00;7.00;;;;;11.17;94.46;100135.70;113429;223;169906;-55
2024/04/06 04:21:51;;;;;;;;;10.50;9.00;;;;;11.19;94.55;100143.54;113665;219;39887;-55
2024/04/06 04:24:28;;;;;;;;;10.00;8.00;;;;;11.18;94.57;100148.10;113498;219;170120;-57
2024/04/06 04:27:08;;;;;;;;;9.00;7.00;;;;;11.19;94.62;100153.27;113648;223;40173;-57
2024/04/06 04:29:47;;;;;;;;;10.50;8.00;;;;;11.21;94.59;100155.61;113519;223;170005;-55
2024/04/06 04:32:22;;;;;;;;;8.00;6.33;;;;;11.24;94.81;100159.41;113597;219;41776;-55
2024/04/06 04:35:06;;;;;;;;;10.00;8.00;;;;;11.31;94.90;100168.80;113609;223;39812;-54
2024/04/06 04:37:43;;;;;;;;;10.00;8.00;;;;;11.35;95.01;100170.12;113387;220;170191;-54
2024/04/06 04:40:26;;;;;;;;;10.00;8.00;;;;;11.42;94.96;100175.48;113647;220;40542;-58
2024/04/06 04:43:07;;;;;;;;;10.00;9.00;;;;;11.80;95.54;100177.83;113384;220;170267;-58
2024/04/06 04:45:44;;;;;;;;;11.00;9.00;;;;;12.67;95.01;100180.27;113608;220;40227;-55
2024/04/06 04:48:22;;;;;;;;;11.00;10.00;;;;;12.99;94.25;100176.97;113417;220;171625;-55
2024/04/06 04:50:57;;;;;;;;;10.00;9.00;;;;;13.40;94.08;100179.27;113601;223;39880;-58
2024/04/06 04:53:33;;;;;;;;;10.00;9.00;;;;;14.17;93.47;100181.31;113613;223;42149;-55
2024/04/06 04:56:10;;;;;;;;;9.50;8.00;;;;;14.76;92.51;100188.16;113570;224;40724;-55
2024/04/06 04:58:48;;;;;;;;;12.00;10.00;;;;;15.59;91.38;100190.77;113594;220;40104;-58
2024/04/06 05:01:22;;;;;;;;;10.00;9.00;;;;;15.72;90.39;100199.89;113490;220;169761;-57
2024/04/06 05:04:00;;;;;;;;;10.00;8.00;;;;;16.17;89.62;100206.70;113676;220;40515;-54
2024/04/06 05:06:39;;;;;;;;;11.00;10.00;;;;;16.17;88.67;100213.83;113444;220;169614;-55
2024/04/06 05:09:15;;;;;;;;;12.00;10.00;;;;;15.96;88.35;100216.77;113669;220;40517;-57
2024/04/06 05:11:57;;;;;;;;;10.50;9.00;;;;;16.22;88.37;100220.83;113557;223;170457;-58
2024/04/06 05:14:42;;;;;;;;;9.00;8.00;;;;;16.69;87.29;100221.70;113642;224;41769;-58
2024/04/06 05:17:27;;;;;;;;;9.00;8.50;;;;;16.62;86.54;100229.64;113709;220;40585;-58
2024/04/06 05:20:07;;;;;;;;;8.00;7.00;;;;;16.48;86.65;100232.80;113468;224;169305;-59
2024/04/06 05:22:49;;;;;;;;;7.00;7.00;;;;;16.86;86.31;100235.02;113613;220;41338;-54
2024/04/06 05:25:27;;;;;;;;;8.00;7.00;;;;;17.63;85.62;100233.95;113405;221;169928;-55
2024/04/06 05:28:06;;;;;;;;;9.00;7.00;;;;;18.58;85.18;100236.03;113620;223;39948;-55
2024/04/06 05:30:40;;;;;;;;;7.00;7.00;;;;;20.06;84.04;100237.91;113459;220;169663;-57
2024/04/06 05:33:23;;;;;;;;;6.00;6.00;;;;;21.28;81.77;100234.74;113562;219;40391;-58
2024/04/06 05:35:56;;;;;;;;;;;;;;;22.68;79.12;100229.80;113432;223;169716;-58
2024/04/06 05:38:35;;;;;;;;;8.00;7.00;;;;;23.55;77.70;100231.77;113604;220;40888;-57
2024/04/06 05:41:14;;;;;;;;;6.00;6.00;;;;;24.24;75.23;100233.35;113573;220;40679;-59
2024/04/06 05:43:56;;;;;;;;;6.00;6.00;;;;;24.78;71.73;100239.04;113470;220;169566;-56
2024/04/06 05:46:42;;;;;;;;;6.00;5.50;;;;;25.33;69.65;100244.73;113631;220;41601;-55
2024/04/06 05:49:24;;;;;;;;;8.00;6.00;;;;;25.04;67.08;100253.41;113450;220;169386;-55
2024/04/06 05:51:59;;;;;;;;;6.00;5.00;;;;;25.29;64.97;100258.08;113608;220;39948;-55
2024/04/06 05:54:37;;;;;;;;;5.00;5.00;;;;;24.76;64.11;100261.49;113477;220;169483;-57
2024/04/06 05:57:15;;;;;;;;;6.00;6.00;;;;;23.57;63.66;100264.30;113669;220;42105;-58
2024/04/06 05:59:51;;;;;;;;;5.00;5.00;;;;;22.92;64.33;100266.89;113472;220;169740;-56
2024/04/06 06:02:27;;;;;;;;;6.00;5.00;;;;;23.76;64.29;100264.11;113628;220;42127;-56
2024/04/06 06:05:01;;;;;;;;;5.00;4.00;;;;;25.06;63.55;100263.77;113676;220;40616;-56
2024/04/06 06:07:38;;;;;;;;;8.00;6.00;;;;;26.24;62.08;100261.38;113444;220;169977;-57
2024/04/06 06:10:19;;;;;;;;;4.00;4.00;;;;;27.14;61.06;100263.64;113648;220;41022;-55
2024/04/06 06:12:56;;;;;;;;;5.00;5.00;;;;;26.97;59.63;100256.30;113392;223;169546;-56
2024/04/06 06:15:36;;;;;;;;;7.00;5.67;;;;;25.82;58.49;100266.14;113643;220;41030;-58
2024/04/06 06:18:15;;;;;;;;;7.00;6.00;;;;;25.25;59.35;100271.49;113371;220;169365;-58
2024/04/06 06:20:58;;;;;;;;;6.00;6.00;;;;;25.49;59.73;100274.52;113595;220;41831;-55
2024/04/06 06:23:40;;;;;;;;;5.00;5.00;;;;;24.66;59.33;100276.61;113572;224;40318;-59
2024/04/06 06:26:16;;;;;;;;;7.00;6.00;;;;;23.65;59.49;100280.73;113625;220;40209;-60
2024/04/06 06:28:57;;;;;;;;;7.00;6.00;;;;;22.62;60.66;100288.56;113664;220;41297;-57
2024/04/06 06:31:31;;;;;;;;;5.00;5.00;;;;;21.75;60.91;100290.09;113407;224;169430;-56
2024/04/06 06:34:08;;;;;;;;;5.00;5.00;;;;;21.16;61.39;100302.39;113653;223;41889;-59
2024/04/06 06:36:43;;;;;;;;;7.00;6.00;;;;;20.95;61.54;100302.09;113419;220;169573;-59
2024/04/06 06:39:19;;;;;;;;;6.00;5.00;;;;;20.98;62.56;100299.21;113673;223;41071;-57
2024/04/06 06:41:55;;;;;;;;;8.00;7.00;;;;;20.66;62.42;100305.34;113450;220;169659;-57
2024/04/06 06:44:35;;;;;;;;;7.00;6.00;;;;;20.36;62.78;100298.63;113655;220;40289;-59
2024/04/06 06:47:13;;;;;;;;;7.00;6.00;;;;;20.13;63.45;100294.20;113026;224;753118;-59
2024/04/06 06:49:54;;;;;;;;;6.00;6.00;;;;;20.02;63.78;100301.56;113495;224;169800;-59
2024/04/06 06:52:29;;;;;;;;;5.00;5.00;;;;;19.59;64.39;100305.08;113639;224;40524;-59
2024/04/06 06:55:03;;;;;;;;;8.00;6.00;;;;;19.46;64.88;100302.45;113431;220;169025;-60
2024/04/06 06:57:47;;;;;;;;;6.00;6.00;;;;;19.22;65.14;100298.86;113625;220;42106;-60
2024/04/06 07:00:21;;;;;;;;;7.00;6.00;;;;;19.47;66.10;100304.55;113454;224;169871;-55
2024/04/06 07:02:59;;;;;;;;;6.00;5.50;;;;;19.37;66.05;100305.15;113581;220;40487;-55
2024/04/06 07:05:41;;;;;;;;;5.00;5.00;;;;;19.92;66.80;100309.19;113613;223;41884;-59
2024/04/06 07:08:19;;;;;;;;;6.00;5.00;;;;;20.32;66.14;100312.02;113588;220;40643;-59
2024/04/06 07:10:55;;;;;;;;;7.00;5.00;;;;;20.69;66.18;100315.98;113601;220;39935;-59
2024/04/06 07:13:33;;;;;;;;;6.00;6.00;;;;;21.45;65.32;100324.89;113395;224;169538;-57
2024/04/06 07:16:14;;;;;;;;;5.00;4.50;;;;;21.48;65.04;100328.66;113603;220;40577;-57
2024/04/06 07:18:58;;;;;;;;;7.00;5.00;;;;;22.22;63.87;100326.00;113429;220;169260;-58
2024/04/06 07:21:36;;;;;;;;;6.00;5.00;;;;;22.38;62.99;100326.28;113604;220;42214;-59
2024/04/06 07:24:12;;;;;;;;;6.00;5.00;;;;;21.77;63.09;100336.30;113428;223;169625;-56
2024/04/06 07:26:55;;;;;;;;;8.00;6.00;;;;;21.66;63.22;100339.59;113649;220;42644;-56
2024/04/06 07:29:29;;;;;;;;;6.00;6.00;;;;;21.46;63.26;100346.62;113651;223;41119;-57
2024/04/06 07:32:08;;;;;;;;;8.00;8.00;;;;;21.48;63.30;100347.95;113450;220;169288;-57
2024/04/06 07:34:47;;;;;;;;;6.00;6.00;;;;;21.53;62.30;100352.67;113701;220;39846;-55
2024/04/06 07:37:24;;;;;;;;;6.00;5.00;;;;;21.23;62.35;100356.24;113436;223;169129;-56
2024/04/06 07:40:02;;;;;;;;;6.00;5.75;;;;;20.96;62.21;100357.20;113667;220;40507;-59
2024/04/06 07:42:43;;;;;;;;;6.00;5.00;;;;;20.73;62.15;100355.39;113437;220;169460;-58
2024/04/06 07:45:18;;;;;;;;;7.00;6.00;;;;;20.92;62.62;100350.45;113609;223;41982;-56
2024/04/06 07:48:00;;;;;;;;;7.00;6.00;;;;;21.64;62.27;100349.06;113438;220;169728;-55
2024/04/06 07:50:35;;;;;;;;;6.50;5.50;;;;;21.77;61.25;100347.96;113569;221;41686;-58
2024/04/06 07:53:11;;;;;;;;;6.25;5.50;;;;;21.57;61.03;100345.88;113604;221;41291;-57
2024/04/06 07:55:47;;;;;;;;;6.00;5.50;;;;;21.16;61.13;100348.86;113414;224;169964;-57
2024/04/06 07:58:39;;;;;;;;;7.00;5.00;;;;;21.09;61.66;100351.59;113628;223;41737;-58
2024/04/06 08:01:26;;;;;;;;;6.00;5.00;;;;;21.02;61.15;100354.09;113427;220;169723;-56
2024/04/06 08:04:05;;;;;;;;;8.00;7.00;;;;;20.86;61.78;100358.56;113639;220;40437;-55
2024/04/06 08:06:42;;;;;;;;;6.00;6.00;;;;;20.87;61.80;100358.25;113444;223;173446;-57
2024/04/06 08:09:16;;;;;;;;;6.00;6.00;;;;;20.61;61.49;100355.42;113647;220;40119;-56
2024/04/06 08:11:53;;;;;;;;;7.00;6.00;;;;;20.32;61.55;100353.84;113448;220;170507;-59
2024/04/06 08:14:34;;;;;;;;;7.00;6.00;;;;;20.14;62.23;100360.69;113638;220;41179;-58
2024/04/06 08:17:11;;;;;;;;;4.50;4.50;;;;;20.97;64.04;100356.70;113686;220;41066;-59
2024/04/06 08:19:51;;;;;;;;;5.00;5.00;;;;;22.15;62.17;100355.95;113457;220;169586;-57
2024/04/06 08:22:35;;;;;;;;;5.00;4.67;;;;;23.05;61.14;100358.70;113628;223;40537;-58
2024/04/06 08:25:14;;;;;;;;;4.00;4.00;;;;;24.33;61.25;100350.88;113383;224;169321;-58
2024/04/06 08:27:51;;;;;;;;;7.00;6.00;;;;;24.92;58.91;100351.67;113660;223;40343;-58
2024/04/06 08:30:33;;;;;;;;;4.00;4.00;;;;;24.60;57.12;100348.16;113398;223;169563;-56
2024/04/06 08:33:08;;;;;;;;;3.00;3.00;;;;;24.37;56.95;100345.31;113568;219;40332;-57
2024/04/06 08:35:44;;;;;;;;;4.00;4.00;;;;;25.07;55.86;100348.98;113560;220;43839;-56
2024/04/06 08:38:23;;;;;;;;;5.00;4.00;;;;;25.84;54.13;100355.23;113581;220;40687;-58
2024/04/06 08:41:11;;;;;;;;;4.00;3.00;;;;;26.02;54.23;100359.27;113605;223;40461;-56
2024/04/06 08:43:56;;;;;;;;;4.00;3.00;;;;;26.43;53.92;100357.73;113404;220;169533;-55
2024/04/06 08:46:31;;;;;;;;;5.00;3.00;;;;;26.55;52.36;100364.41;113590;220;41468;-54
2024/04/06 08:49:08;;;;;;;;;5.00;3.67;;;;;26.09;51.36;100366.79;113429;220;169392;-56
2024/04/06 08:51:46;;;;;;;;;4.00;3.50;;;;;25.74;50.94;100368.22;113605;224;42437;-56
2024/04/06 08:54:24;;;;;;;;;4.00;3.00;;;;;25.12;50.59;100374.61;113425;223;169787;-55
2024/04/06 08:57:01;;;;;;;;;4.00;4.00;;;;;24.47;50.35;100370.58;113627;220;41223;-55
2024/04/06 08:59:36;;;;;;;;;3.50;3.00;;;;;24.05;50.86;100372.33;113647;220;40624;-56
2024/04/06 09:02:17;;;;;;;;;4.00;4.00;;;;;23.65;51.47;100374.44;113428;224;169241;-56
2024/04/06 09:04:58;;;;;;;;;3.00;3.00;;;;;23.85;51.93;100370.00;113636;220;40494;-55
2024/04/06 09:07:37;;;;;;;;;4.00;3.00;;;;;23.77;51.03;100368.59;113403;220;169583;-55
2024/04/06 09:10:16;;;;;;;;;3.00;3.00;;;;;23.98;51.87;100365.16;113646;220;42138;-58
2024/04/06 09:12:53;;;;;;;;;5.00;5.00;;;;;24.10;51.80;100363.48;113380;224;169655;-57
2024/04/06 09:15:27;;;;;;;;;4.00;4.00;;;;;23.95;51.34;100365.04;113624;220;41078;-57
2024/04/06 09:18:09;;;;;;;;;3.00;2.00;;;;;23.99;50.78;100360.12;113437;224;169916;-58
2024/04/06 09:20:52;;;;;;;;;5.00;4.00;;;;;23.37;50.81;100357.52;113609;224;40436;-58
2024/04/06 09:23:36;;;;;;;;;4.00;3.00;;;;;22.90;51.18;100360.12;113640;223;40802;-57
2024/04/06 09:26:21;;;;;;;;;3.50;3.00;;;;;22.78;51.56;100357.00;113483;224;39892;-57
2024/04/06 09:28:59;;;;;;;;;4.00;4.00;;;;;22.52;51.72;100358.41;113607;220;40825;-58
2024/04/06 09:31:36;;;;;;;;;5.00;4.00;;;;;22.78;52.21;100365.54;113491;224;169427;-60
2024/04/06 09:34:15;;;;;;;;;3.00;3.00;;;;;23.02;52.79;100364.73;113658;220;40181;-55
2024/04/06 09:36:57;;;;;;;;;5.00;5.00;;;;;23.07;52.93;100367.05;113411;220;169660;-55
2024/04/06 09:39:40;;;;;;;;;3.50;3.00;;;;;23.20;53.12;100369.89;113627;224;40450;-56
2024/04/06 09:42:15;;;;;;;;;4.00;3.00;;;;;23.26;52.75;100372.16;113429;221;169816;-55
2024/04/06 09:44:54;;;;;;;;;4.00;4.00;;;;;23.07;52.51;100373.08;113657;219;41357;-54
2024/04/06 09:47:32;;;;;;;;;5.00;4.00;;;;;22.82;51.84;100372.83;113650;219;40873;-54
2024/04/06 09:50:10;;;;;;;;;5.00;4.00;;;;;22.44;52.21;100371.46;113457;221;169435;-55
2024/04/06 09:52:44;;;;;;;;;4.50;4.00;;;;;22.61;52.65;100364.30;113633;220;40006;-55
2024/04/06 09:55:19;;;;;;;;;4.00;3.00;;;;;22.50;52.42;100371.45;113506;220;170080;-54
2024/04/06 09:57:56;;;;;;;;;4.00;3.00;;;;;22.01;52.48;100378.98;113576;220;42039;-55
2024/04/06 10:00:38;;;;;;;;;6.00;4.50;;;;;21.96;53.29;100372.88;113499;223;169711;-57
2024/04/06 10:03:22;;;;;;;;;5.00;5.00;;;;;22.16;53.19;100373.69;113682;220;41805;-60
2024/04/06 10:06:07;;;;;;;;;5.00;4.00;;;;;22.20;52.32;100371.12;113441;220;169389;-58
2024/04/06 10:08:52;;;;;;;;;5.00;3.67;;;;;22.35;52.73;100378.09;113606;220;41251;-58
2024/04/06 10:11:29;;;;;;;;;3.50;3.00;;;;;22.48;52.75;100374.84;113624;220;40697;-55
2024/04/06 10:14:07;;;;;;;;;4.00;3.00;;;;;22.52;53.03;100373.94;113416;223;169424;-55
2024/04/06 10:16:43;;;;;;;;;3.00;3.00;;;;;22.78;52.36;100376.27;113622;220;40821;-55
2024/04/06 10:19:21;;;;;;;;;6.00;5.00;;;;;22.77;51.60;100379.08;113400;220;169306;-56
2024/04/06 10:22:06;;;;;;;;;4.00;3.00;;;;;22.48;51.76;100382.78;113599;220;40078;-55
2024/04/06 10:24:53;;;;;;;;;4.00;4.00;;;;;21.92;52.00;100386.71;113468;223;169309;-58
2024/04/06 10:27:38;;;;;;;;;3.00;2.00;;;;;21.63;52.72;100389.10;113610;220;40590;-59
2024/04/06 10:30:20;;;;;;;;;4.00;4.00;;;;;21.60;52.52;100386.83;113501;220;169523;-59
2024/04/06 10:32:57;;;;;;;;;3.00;2.00;;;;;21.59;52.57;100384.61;113646;220;41863;-58
2024/04/06 10:35:35;;;;;;;;;2.33;2.00;;;;;21.71;52.70;100385.04;113689;223;39945;-59
2024/04/06 10:38:15;;;;;;;;;3.00;3.00;;;;;21.79;52.95;100382.98;113434;220;169815;-59
2024/04/06 10:40:51;;;;;;;;;3.00;3.00;;;;;21.55;52.47;100382.48;113651;220;40901;-57
2024/04/06 10:43:26;;;;;;;;;6.00;4.00;;;;;21.21;52.62;100381.42;113444;223;169665;-57
2024/04/06 10:46:05;;;;;;;;;2.50;2.00;;;;;21.09;52.97;100381.41;113635;223;40639;-54
2024/04/06 10:48:46;;;;;;;;;3.00;2.67;;;;;21.50;52.93;100384.25;113429;220;169484;-57
2024/04/06 10:51:25;;;;;;;;;4.00;3.00;;;;;21.96;52.91;100381.63;113564;220;40819;-57
2024/04/06 10:54:08;;;;;;;;;11.00;8.00;;;;;22.02;52.89;100382.73;113435;220;169644;-58
2024/04/06 10:56:45;;;;;;;;;4.00;3.00;;;;;21.75;51.77;100387.45;113576;224;41264;-59
2024/04/06 10:59:23;;;;;;;;;4.00;4.00;;;;;21.34;52.16;100388.95;113634;223;40997;-54
2024/04/06 11:02:13;;;;;;;;;6.00;5.00;;;;;20.95;52.53;100391.30;113435;220;169569;-55
2024/04/06 11:04:52;;;;;;;;;4.67;4.00;;;;;20.87;52.75;100389.88;113647;220;41492;-59
2024/04/06 11:07:26;;;;;;;;;5.00;4.00;;;;;20.96;53.04;100397.41;113422;220;169340;-59
2024/04/06 11:10:03;;;;;;;;;4.00;4.00;;;;;21.06;53.06;100396.16;113632;220;40409;-59
2024/04/06 11:12:46;;;;;;;;;2.75;2.50;;;;;21.11;53.05;100395.67;113427;224;169642;-59
2024/04/06 11:15:28;;;;;;;;;4.00;3.00;;;;;21.22;52.88;100398.11;113669;220;40553;-60
2024/04/06 11:18:08;;;;;;;;;4.00;3.00;;;;;21.12;53.06;100401.58;113450;223;170282;-60
2024/04/06 11:20:48;;;;;;;;;5.00;4.00;;;;;21.02;53.29;100403.52;113647;220;40933;-58
2024/04/06 11:23:29;;;;;;;;;4.00;4.00;;;;;21.12;53.40;100400.08;113643;223;40828;-58
2024/04/06 11:26:09;;;;;;;;;4.00;4.00;;;;;21.41;53.31;100403.47;113439;223;169452;-61
2024/04/06 11:28:44;;;;;;;;;5.00;4.00;;;;;21.50;53.31;100404.21;113617;220;41879;-59
2024/04/06 11:31:21;;;;;;;;;5.00;5.00;;;;;21.73;53.38;100404.64;113431;220;173639;-59
2024/04/06 11:34:02;;;;;;;;;5.00;4.00;;;;;21.81;53.22;100408.29;113612;223;40895;-59
2024/04/06 11:36:45;;;;;;;;;4.00;3.00;;;;;21.97;52.45;100409.36;113372;220;169857;-58
2024/04/06 11:39:26;;;;;;;;;4.00;3.00;;;;;21.92;51.84;100409.06;113587;223;41888;-61
2024/04/06 11:42:02;;;;;;;;;4.00;3.00;;;;;21.98;51.67;100407.08;113389;220;169546;-60
2024/04/06 11:44:42;;;;;;;;;3.00;3.00;;;;;21.86;50.92;100405.25;113593;220;40057;-60
2024/04/06 11:47:23;;;;;;;;;3.00;3.00;;;;;21.62;51.54;100410.54;113598;220;41525;-59
2024/04/06 11:50:00;;;;;;;;;5.00;4.00;;;;;21.65;51.29;100409.69;113407;223;169373;-59
2024/04/06 11:52:37;;;;;;;;;3.00;3.00;;;;;21.61;51.08;100409.53;113596;223;40273;-59
2024/04/06 11:55:17;;;;;;;;;4.00;4.00;;;;;21.36;51.02;100414.23;113453;220;169468;-56
2024/04/06 11:57:53;;;;;;;;;4.00;4.00;;;;;20.96;50.88;100411.48;113624;220;42056;-56
2024/04/06 12:00:33;;;;;;;;;3.00;2.00;;;;;20.57;51.28;100413.45;113460;223;169390;-55
2024/04/06 12:03:11;;;;;;;;;5.00;4.00;;;;;20.34;51.66;100413.58;113605;224;40475;-55
2024/04/06 12:05:45;;;;;;;;;4.00;4.00;;;;;20.50;51.79;100409.02;113684;220;40552;-57
2024/04/06 12:08:24;;;;;;;;;5.00;4.00;;;;;20.64;52.04;100404.27;113616;224;40389;-57
2024/04/06 12:11:00;;;;;;;;;4.00;3.50;;;;;20.45;51.89;100409.17;113641;220;40728;-57
2024/04/06 12:13:39;;;;;;;;;4.00;3.00;;;;;20.33;51.99;100413.79;113424;224;169425;-55